Ana Sayfa
METAR-TAF:

METAR-TAF

Havaalanları :

Bemidji, Minnesota, Amerika Birleşik Devletleri

Enlem: 47-30N, Boylam: 094-56W, yükseklik: 423 m

Güncel hava durumu gözlemi

Rapor saat 08:55 UTC de 35 dakika önce yapıldı.
Rüzgar batıdan 7 kt
Sıcaklık 16°C
Nem 82%
Basınç 1006 hPa
Görüş mesafesi: 16.1 km
Açık gökyüzü

METAR: KBJI 250855Z AUTO 28007KT 10SM CLR 16/13 A2970 RMK AO2 T01640125

Saat: 04:30 (09:30 UTC)

Tahmin

Rapor saat 07:08 UTC de 2 saat ve 22 dakika önce yapıldı.
Ayın 25'si saat 07 UTC'den ayın 26'si saat 06 UTC'ye kadar geçerli Tahmin
Rüzgar batıdan 7 kt
Görüş mesafesi: 10 km
9000 ft yükseklikte az bulutlu
Ayın 25'si saat 1500 UTC'den
Rüzgar batı/kuzeybatıdan 10 kt
Görüş mesafesi: 10 km
25000 ft yükseklikte az bulutlu
Ayın 25'si saat 2300 UTC'den
Rüzgar kuzeybatıdan 13 kt
Görüş mesafesi: 10 km
25000 ft yükseklikte az bulutlu

TAF: KBJI 250708Z 2507/2606 28007KT P6SM FEW090 FM251500 29010KT P6SM FEW250 FM252300 31013KT P6SM FEW250

4.000'den fazla havaalanı için hava durumu gözlemleri ve tahminleri (METAR ve TAF raporları).

Kullanılabilir istasyonlar harita üzerinde sarı ve kırmızı noktalarla gösterilir.

İstasyonun adını görmek için fareyi noktanın üzerinde gezdirin.

Sonrasında hava gözlem ve tahminlerini görmek için tıklayın.

Haritayı değiştirmek için: yaklaştırmak için siyah artı işaretli yeşil düğmeye ve uzaklaştırmak için de eksi işaretli düğmeye hızla tıklayın; bitişik haritalar için yeşil okları kullanın.


METAR-TAF: